createdAt,value
2017-08-24T00:00:24.349Z,0
2017-08-24T00:01:24.630Z,0
2017-08-24T00:02:24.604Z,0
2017-08-24T00:03:24.837Z,0
2017-08-24T00:04:24.569Z,0
2017-08-24T00:05:24.242Z,0
2017-08-24T00:06:24.530Z,0
2017-08-24T00:07:24.509Z,0
2017-08-24T00:08:24.493Z,0
2017-08-24T00:09:24.497Z,0
2017-08-24T00:10:24.452Z,0
2017-08-24T00:11:24.429Z,0
2017-08-24T00:12:24.407Z,0
2017-08-24T00:13:24.086Z,0
2017-08-24T00:14:24.365Z,0
2017-08-24T00:15:24.356Z,0
2017-08-24T00:16:24.333Z,0
2017-08-24T00:17:24.307Z,0
2017-08-24T00:18:24.288Z,0
2017-08-24T00:19:24.271Z,0
2017-08-24T00:20:24.522Z,0
2017-08-24T00:21:23.930Z,0
2017-08-24T00:22:24.415Z,0
2017-08-24T00:23:24.196Z,0
2017-08-24T00:24:24.175Z,0
2017-08-24T00:25:24.371Z,0
2017-08-24T00:26:24.132Z,0
2017-08-24T00:27:24.111Z,0
2017-08-24T00:28:24.094Z,0
2017-08-24T00:29:24.073Z,0
2017-08-24T00:30:24.053Z,0
2017-08-24T00:31:24.042Z,0
2017-08-24T00:32:24.008Z,0
2017-08-24T00:33:24.009Z,0
2017-08-24T00:34:23.971Z,0
2017-08-24T00:35:23.649Z,0
2017-08-24T00:36:23.938Z,0
2017-08-24T00:37:23.610Z,0
2017-08-24T00:38:23.903Z,0
2017-08-24T00:39:23.881Z,0
2017-08-24T00:40:23.901Z,0
2017-08-24T00:41:23.838Z,0
2017-08-24T00:42:23.817Z,0
2017-08-24T00:43:23.792Z,0
2017-08-24T00:44:23.782Z,0
2017-08-24T00:45:23.473Z,0
2017-08-24T00:46:23.734Z,0
2017-08-24T00:47:23.430Z,0
2017-08-24T00:48:23.708Z,0
2017-08-24T00:49:23.678Z,0
2017-08-24T00:50:23.663Z,0
2017-08-24T00:51:23.642Z,0
2017-08-24T00:52:23.671Z,0
2017-08-24T00:53:23.601Z,0
2017-08-24T00:54:23.592Z,0
2017-08-24T00:55:23.563Z,0
2017-08-24T00:56:23.253Z,0
2017-08-24T00:57:23.530Z,0
2017-08-24T00:58:23.507Z,0
2017-08-24T00:59:23.534Z,0
2017-08-24T01:00:23.515Z,0
2017-08-24T01:01:23.448Z,0
2017-08-24T01:02:23.426Z,0
2017-08-24T01:03:23.101Z,0
2017-08-24T01:04:23.382Z,0
2017-08-24T01:05:23.391Z,0
2017-08-24T01:06:23.090Z,0
2017-08-24T01:07:23.026Z,0
2017-08-24T01:08:23.305Z,0
2017-08-24T01:09:23.341Z,0
2017-08-24T01:10:23.269Z,0
2017-08-24T01:11:22.981Z,0
2017-08-24T01:12:23.230Z,0
2017-08-24T01:13:23.215Z,0
2017-08-24T01:14:23.188Z,0
2017-08-24T01:15:23.170Z,0
2017-08-24T01:16:22.855Z,0
2017-08-24T01:17:23.348Z,0
2017-08-24T01:18:22.807Z,0
2017-08-24T01:19:22.846Z,0
2017-08-24T01:20:22.766Z,0
2017-08-24T01:21:22.761Z,0
2017-08-24T01:22:22.738Z,0
2017-08-24T01:23:22.721Z,0
2017-08-24T01:24:23.033Z,0
2017-08-24T01:25:22.728Z,0
2017-08-24T01:26:23.351Z,0
2017-08-24T01:27:22.930Z,0
2017-08-24T01:28:22.912Z,0
2017-08-24T01:29:22.589Z,0
2017-08-24T01:30:22.871Z,0
2017-08-24T01:31:22.873Z,0
2017-08-24T01:32:22.826Z,0
2017-08-24T01:33:22.816Z,0
2017-08-24T01:34:22.799Z,0
2017-08-24T01:35:22.778Z,0
2017-08-24T01:36:22.449Z,0
2017-08-24T01:37:22.980Z,0
2017-08-24T01:38:22.718Z,0
2017-08-24T01:39:22.907Z,0
2017-08-24T01:40:22.675Z,0
2017-08-24T01:41:22.863Z,0
2017-08-24T01:42:22.633Z,0
2017-08-24T01:43:22.312Z,0
2017-08-24T01:44:22.597Z,0
2017-08-24T01:45:22.790Z,0
2017-08-24T01:46:22.561Z,0
2017-08-24T01:47:22.595Z,0
2017-08-24T01:48:22.526Z,0
2017-08-24T01:49:22.750Z,0
2017-08-24T01:50:22.495Z,0
2017-08-24T01:51:22.515Z,0
2017-08-24T01:52:22.435Z,0
2017-08-24T01:53:22.414Z,0
2017-08-24T01:54:22.412Z,0
2017-08-24T01:55:36.985Z,0
2017-08-24T01:56:22.054Z,0
2017-08-24T01:57:22.357Z,0
2017-08-24T01:58:22.318Z,0
2017-08-24T01:59:22.300Z,0
2017-08-24T02:00:22.288Z,0
2017-08-24T02:01:22.265Z,0
2017-08-24T02:02:22.442Z,0
2017-08-24T02:03:22.228Z,0
2017-08-24T02:04:22.203Z,0
2017-08-24T02:05:22.194Z,0
2017-08-24T02:06:22.170Z,0
2017-08-24T02:07:22.151Z,0
2017-08-24T02:08:22.131Z,0
2017-08-24T02:09:22.138Z,0
2017-08-24T02:10:22.137Z,0
2017-08-24T02:11:22.071Z,0
2017-08-24T02:12:21.747Z,0
2017-08-24T02:13:22.026Z,0
2017-08-24T02:14:22.001Z,0
2017-08-24T02:15:21.694Z,0
2017-08-24T02:16:36.574Z,0
2017-08-24T02:17:21.943Z,0
2017-08-24T02:18:21.922Z,0
2017-08-24T02:19:21.919Z,0
2017-08-24T02:20:21.901Z,0
2017-08-24T02:21:21.928Z,0
2017-08-24T02:22:21.864Z,0
2017-08-24T02:23:22.029Z,0
2017-08-24T02:24:21.815Z,0
2017-08-24T02:25:21.786Z,0
2017-08-24T02:26:21.775Z,0
2017-08-24T02:27:21.753Z,0
2017-08-24T02:28:21.439Z,0
2017-08-24T02:29:21.709Z,0
2017-08-24T02:30:21.691Z,0
2017-08-24T02:31:21.881Z,0
2017-08-24T02:32:21.658Z,0
2017-08-24T02:33:21.630Z,0
2017-08-24T02:34:21.618Z,0
2017-08-24T02:35:21.595Z,0
2017-08-24T02:36:21.578Z,0
2017-08-24T02:37:21.552Z,0
2017-08-24T02:38:21.539Z,0
2017-08-24T02:39:21.721Z,0
2017-08-24T02:40:21.493Z,0
2017-08-24T02:41:21.476Z,0
2017-08-24T02:42:21.453Z,0
2017-08-24T02:43:21.488Z,0
2017-08-24T02:44:21.423Z,0
2017-08-24T02:45:21.394Z,0
2017-08-24T02:46:21.372Z,0
2017-08-24T02:47:21.372Z,0
2017-08-24T02:48:21.083Z,0
2017-08-24T02:49:21.313Z,0
2017-08-24T02:50:21.307Z,0
2017-08-24T02:51:20.974Z,0
2017-08-24T02:52:21.257Z,0
2017-08-24T02:53:21.239Z,0
2017-08-24T02:54:21.218Z,0
2017-08-24T02:55:21.195Z,0
2017-08-24T02:56:21.420Z,0
2017-08-24T02:57:21.166Z,0
2017-08-24T02:58:21.133Z,0
2017-08-24T02:59:21.161Z,0
2017-08-24T03:00:21.099Z,0
2017-08-24T03:01:21.080Z,0
2017-08-24T03:02:21.054Z,0
2017-08-24T03:03:21.040Z,0
2017-08-24T03:04:21.018Z,0
2017-08-24T03:05:20.995Z,0
2017-08-24T03:06:20.974Z,0
2017-08-24T03:07:20.956Z,0
2017-08-24T03:08:20.943Z,0
2017-08-24T03:09:20.973Z,0
2017-08-24T03:10:20.907Z,0
2017-08-24T03:11:20.881Z,0
2017-08-24T03:12:20.864Z,0
2017-08-24T03:13:20.845Z,0
2017-08-24T03:14:20.821Z,0
2017-08-24T03:15:20.197Z,0
2017-08-24T03:16:20.781Z,0
2017-08-24T03:17:20.762Z,0
2017-08-24T03:18:20.736Z,0
2017-08-24T03:19:20.772Z,0
2017-08-24T03:20:20.701Z,0
2017-08-24T03:21:20.679Z,0
2017-08-24T03:22:20.666Z,0
2017-08-24T03:23:20.349Z,0
2017-08-24T03:24:20.621Z,0
2017-08-24T03:25:20.610Z,0
2017-08-24T03:26:20.586Z,0
2017-08-24T03:27:20.578Z,0
2017-08-24T03:28:20.542Z,0
2017-08-24T03:29:20.529Z,0
2017-08-24T03:30:20.562Z,0
2017-08-24T03:31:20.593Z,0
2017-08-24T03:32:20.464Z,0
2017-08-24T03:33:20.445Z,0
2017-08-24T03:34:20.427Z,0
2017-08-24T03:35:20.413Z,0
2017-08-24T03:36:20.135Z,0
2017-08-24T03:37:20.376Z,0
2017-08-24T03:38:20.347Z,0
2017-08-24T03:39:20.329Z,0
2017-08-24T03:40:20.416Z,0
2017-08-24T03:41:19.987Z,0
2017-08-24T03:42:20.270Z,0
2017-08-24T03:43:20.250Z,0
2017-08-24T03:44:20.227Z,0
2017-08-24T03:45:20.262Z,0
2017-08-24T03:46:20.204Z,0
2017-08-24T03:47:20.214Z,0
2017-08-24T03:48:19.896Z,0
2017-08-24T03:49:19.832Z,0
2017-08-24T03:50:19.805Z,0
2017-08-24T03:51:19.779Z,0
2017-08-24T03:52:20.067Z,0
2017-08-24T03:53:20.056Z,0
2017-08-24T03:54:20.026Z,0
2017-08-24T03:55:20.016Z,0
2017-08-24T03:56:19.991Z,0
2017-08-24T03:57:19.670Z,0
2017-08-24T03:58:19.959Z,0
2017-08-24T03:59:19.941Z,0
2017-08-24T04:00:19.913Z,0
2017-08-24T04:01:19.581Z,0
2017-08-24T04:02:19.875Z,0
2017-08-24T04:03:19.854Z,0
2017-08-24T04:04:19.838Z,0
2017-08-24T04:05:19.806Z,0
2017-08-24T04:06:19.824Z,4
2017-08-24T04:07:19.772Z,4
2017-08-24T04:08:19.753Z,4
2017-08-24T04:09:19.429Z,0
2017-08-24T04:10:19.707Z,4
2017-08-24T04:11:19.393Z,8
2017-08-24T04:12:19.369Z,4
2017-08-24T04:13:19.656Z,8
2017-08-24T04:14:19.642Z,8
2017-08-24T04:15:19.666Z,12
2017-08-24T04:16:19.596Z,16
2017-08-24T04:17:19.282Z,20
2017-08-24T04:18:19.554Z,24
2017-08-24T04:19:19.538Z,28
2017-08-24T04:20:19.215Z,36
2017-08-24T04:21:19.546Z,40
2017-08-24T04:22:19.485Z,48
2017-08-24T04:23:19.155Z,48
2017-08-24T04:24:19.493Z,52
2017-08-24T04:25:19.112Z,60
2017-08-24T04:26:19.419Z,68
2017-08-24T04:27:19.373Z,76
2017-08-24T04:28:19.350Z,96
2017-08-24T04:29:19.338Z,100
2017-08-24T04:30:19.323Z,116
2017-08-24T04:31:19.290Z,124
2017-08-24T04:32:19.277Z,140
2017-08-24T04:33:18.960Z,168
2017-08-24T04:34:19.233Z,204
2017-08-24T04:35:19.217Z,228
2017-08-24T04:36:19.190Z,256
2017-08-24T04:37:19.190Z,308
2017-08-24T04:38:19.153Z,356
2017-08-24T04:39:18.827Z,364
2017-08-24T04:40:19.131Z,368
2017-08-24T04:41:19.096Z,372
2017-08-24T04:42:19.137Z,368
2017-08-24T04:43:19.305Z,396
2017-08-24T04:44:19.040Z,444
2017-08-24T04:45:18.721Z,484
2017-08-24T04:46:19.004Z,544
2017-08-24T04:47:18.984Z,596
2017-08-24T04:48:19.005Z,620
2017-08-24T04:49:18.930Z,696
2017-08-24T04:50:18.927Z,796
2017-08-24T04:51:18.892Z,868
2017-08-24T04:52:18.875Z,892
2017-08-24T04:53:18.853Z,920
2017-08-24T04:54:18.837Z,972
2017-08-24T04:55:18.816Z,1024
2017-08-24T04:56:18.796Z,1096
2017-08-24T04:57:18.481Z,1176
2017-08-24T04:58:18.765Z,1252
2017-08-24T04:59:18.732Z,1304
2017-08-24T05:00:18.726Z,1340
2017-08-24T05:01:18.396Z,1380
2017-08-24T05:02:18.676Z,1416
2017-08-24T05:03:18.656Z,1448
2017-08-24T05:04:18.330Z,1468
2017-08-24T05:05:18.620Z,1484
2017-08-24T05:06:18.607Z,1500
2017-08-24T05:07:18.628Z,1516
2017-08-24T05:08:18.561Z,1568
2017-08-24T05:09:18.547Z,1632
2017-08-24T05:10:18.524Z,1700
2017-08-24T05:11:18.207Z,1772
2017-08-24T05:12:18.485Z,1852
2017-08-24T05:13:18.711Z,1940
2017-08-24T05:14:18.439Z,2016
2017-08-24T05:15:18.436Z,2104
2017-08-24T05:16:18.409Z,2192
2017-08-24T05:17:18.381Z,2304
2017-08-24T05:18:18.360Z,2424
2017-08-24T05:19:18.337Z,2544
2017-08-24T05:20:18.375Z,2676
2017-08-24T05:21:18.295Z,2800
2017-08-24T05:22:17.977Z,2912
2017-08-24T05:23:18.261Z,3028
2017-08-24T05:24:17.933Z,3152
2017-08-24T05:25:18.262Z,3312
2017-08-24T05:26:18.198Z,3452
2017-08-24T05:27:18.187Z,3564
2017-08-24T05:28:18.162Z,3628
2017-08-24T05:29:18.143Z,3632
2017-08-24T05:30:18.111Z,3588
2017-08-24T05:31:18.106Z,3508
2017-08-24T05:32:18.075Z,3440
2017-08-24T05:33:18.056Z,3316
2017-08-24T05:34:18.037Z,3240
2017-08-24T05:35:17.725Z,3300
2017-08-24T05:36:18.003Z,3400
2017-08-24T05:37:17.984Z,3548
2017-08-24T05:38:17.960Z,3724
2017-08-24T05:39:17.943Z,3632
2017-08-24T05:40:17.924Z,3480
2017-08-24T05:41:17.905Z,3484
2017-08-24T05:42:17.583Z,3636
2017-08-24T05:43:17.863Z,3684
2017-08-24T05:44:17.835Z,3628
2017-08-24T05:45:17.634Z,3540
2017-08-24T05:46:17.496Z,3584
2017-08-24T05:47:17.481Z,4172
2017-08-24T05:48:17.767Z,4316
2017-08-24T05:49:17.452Z,4372
2017-08-24T05:50:17.720Z,4576
2017-08-24T05:51:17.701Z,4844
2017-08-24T05:52:17.691Z,5044
2017-08-24T05:53:32.272Z,4832
2017-08-24T05:54:17.640Z,4680
2017-08-24T05:55:17.624Z,4048
2017-08-24T05:56:17.602Z,3964
2017-08-24T05:57:17.588Z,4056
2017-08-24T05:58:17.562Z,4148
2017-08-24T05:59:17.550Z,3840
2017-08-24T06:00:17.269Z,3628
2017-08-24T06:01:17.508Z,3392
2017-08-24T06:02:17.498Z,2868
2017-08-24T06:03:17.469Z,2336
2017-08-24T06:04:17.447Z,2076
2017-08-24T06:05:17.453Z,1904
2017-08-24T06:06:17.408Z,2100
2017-08-24T06:07:17.393Z,2204
2017-08-24T06:08:17.368Z,2780
2017-08-24T06:09:17.359Z,3320
2017-08-24T06:10:17.375Z,3768
2017-08-24T06:11:17.370Z,4000
2017-08-24T06:12:17.297Z,3880
2017-08-24T06:13:17.269Z,3504
2017-08-24T06:14:17.250Z,4056
2017-08-24T06:15:17.435Z,4884
2017-08-24T06:16:17.411Z,4764
2017-08-24T06:17:17.187Z,4164
2017-08-24T06:18:17.375Z,3804
2017-08-24T06:19:17.149Z,4256
2017-08-24T06:20:17.129Z,3988
2017-08-24T06:21:17.108Z,3524
2017-08-24T06:22:17.096Z,3320
2017-08-24T06:23:16.764Z,3812
2017-08-24T06:24:17.046Z,4192
2017-08-24T06:25:17.041Z,4700
2017-08-24T06:26:17.018Z,4864
2017-08-24T06:27:16.698Z,4348
2017-08-24T06:28:16.981Z,3928
2017-08-24T06:29:17.000Z,3976
2017-08-24T06:30:16.941Z,4344
2017-08-24T06:31:16.613Z,3868
2017-08-24T06:32:16.905Z,3508
2017-08-24T06:33:16.871Z,4024
2017-08-24T06:34:16.854Z,4464
2017-08-24T06:35:16.837Z,4208
2017-08-24T06:36:16.524Z,4424
2017-08-24T06:37:16.795Z,4312
2017-08-24T06:38:16.487Z,4372
2017-08-24T06:39:16.766Z,4924
2017-08-24T06:40:16.739Z,4832
2017-08-24T06:41:16.718Z,5172
2017-08-24T06:42:16.704Z,5944
2017-08-24T06:43:31.289Z,6284
2017-08-24T06:44:16.402Z,5488
2017-08-24T06:45:16.343Z,5172
2017-08-24T06:46:16.316Z,4960
2017-08-24T06:47:16.596Z,5252
2017-08-24T06:48:16.583Z,5320
2017-08-24T06:49:16.273Z,5296
2017-08-24T06:50:16.551Z,4536
2017-08-24T06:51:16.577Z,4848
2017-08-24T06:52:16.508Z,5552
2017-08-24T06:53:16.182Z,5100
2017-08-24T06:54:16.513Z,4996
2017-08-24T06:55:16.540Z,5244
2017-08-24T06:56:16.421Z,5612
2017-08-24T06:57:16.406Z,6040
2017-08-24T06:58:16.387Z,5184
2017-08-24T06:59:16.370Z,4892
2017-08-24T07:00:16.352Z,4596
2017-08-24T07:01:16.331Z,4224
2017-08-24T07:02:16.312Z,3508
2017-08-24T07:03:16.321Z,3752
2017-08-24T07:04:16.273Z,4220
2017-08-24T07:05:16.254Z,4996
2017-08-24T07:06:16.229Z,4136
2017-08-24T07:07:16.212Z,3824
2017-08-24T07:08:16.189Z,3908
2017-08-24T07:09:16.182Z,4184
2017-08-24T07:10:16.157Z,4420
2017-08-24T07:11:15.841Z,4464
2017-08-24T07:12:16.113Z,4700
2017-08-24T07:13:16.105Z,4672
2017-08-24T07:14:16.182Z,5048
2017-08-24T07:15:16.065Z,4464
2017-08-24T07:16:16.029Z,4576
2017-08-24T07:17:16.013Z,4712
2017-08-24T07:18:15.995Z,5028
2017-08-24T07:19:16.198Z,5588
2017-08-24T07:20:16.015Z,5908
2017-08-24T07:21:15.936Z,5692
2017-08-24T07:22:15.920Z,5480
2017-08-24T07:23:15.890Z,5396
2017-08-24T07:24:15.884Z,5804
2017-08-24T07:25:15.566Z,5732
2017-08-24T07:26:15.901Z,5000
2017-08-24T07:27:15.825Z,4876
2017-08-24T07:28:15.855Z,4740
2017-08-24T07:29:15.779Z,5592
2017-08-24T07:30:15.758Z,7316
2017-08-24T07:31:15.745Z,9428
2017-08-24T07:32:15.730Z,9840
2017-08-24T07:33:15.705Z,9020
2017-08-24T07:34:15.379Z,8084
2017-08-24T07:35:15.672Z,10544
2017-08-24T07:36:15.641Z,10724
2017-08-24T07:37:15.624Z,11288
2017-08-24T07:38:15.603Z,10072
2017-08-24T07:39:15.581Z,9660
2017-08-24T07:40:15.570Z,12096
2017-08-24T07:41:15.550Z,10784
2017-08-24T07:42:15.528Z,7964
2017-08-24T07:43:15.534Z,8340
2017-08-24T07:44:15.556Z,7956
2017-08-24T07:45:15.478Z,7904
2017-08-24T07:46:15.453Z,5712
2017-08-24T07:47:15.140Z,4844
2017-08-24T07:48:15.414Z,6376
2017-08-24T07:49:15.427Z,8028
2017-08-24T07:50:15.384Z,8152
2017-08-24T07:51:15.059Z,10712
2017-08-24T07:52:15.341Z,7456
2017-08-24T07:53:15.324Z,5560
2017-08-24T07:54:15.306Z,5840
2017-08-24T07:55:15.287Z,7176
2017-08-24T07:56:15.273Z,8580
2017-08-24T07:57:14.950Z,9116
2017-08-24T07:58:15.236Z,9608
2017-08-24T07:59:15.215Z,9248
2017-08-24T08:00:15.494Z,10208
2017-08-24T08:01:15.187Z,8980
2017-08-24T08:02:15.151Z,10812
2017-08-24T08:03:15.129Z,11316
2017-08-24T08:04:15.117Z,10996
2017-08-24T08:05:15.142Z,9340
2017-08-24T08:06:15.073Z,7716
2017-08-24T08:07:15.052Z,8580
2017-08-24T08:08:15.038Z,8284
2017-08-24T08:09:15.012Z,6348
2017-08-24T08:10:15.002Z,7396
2017-08-24T08:11:14.976Z,8276
2017-08-24T08:12:14.966Z,9352
2017-08-24T08:13:14.940Z,8280
2017-08-24T08:14:14.619Z,9124
2017-08-24T08:15:14.900Z,10760
2017-08-24T08:16:14.897Z,11752
2017-08-24T08:17:14.872Z,9860
2017-08-24T08:18:14.850Z,10492
2017-08-24T08:19:14.823Z,11340
2017-08-24T08:20:14.817Z,11764
2017-08-24T08:21:14.502Z,9808
2017-08-24T08:22:14.815Z,10420
2017-08-24T08:23:14.446Z,12148
2017-08-24T08:24:14.445Z,10936
2017-08-24T08:25:14.772Z,9384
2017-08-24T08:26:14.947Z,9240
2017-08-24T08:27:14.688Z,13996
2017-08-24T08:28:14.710Z,13440
2017-08-24T08:29:14.895Z,14664
2017-08-24T08:30:14.333Z,13652
2017-08-24T08:31:14.006Z,30432
2017-08-24T08:32:14.585Z,21824
2017-08-24T08:33:14.271Z,20288
2017-08-24T08:34:14.550Z,45280
2017-08-24T08:35:14.223Z,33344
2017-08-24T08:36:14.539Z,16992
2017-08-24T08:37:14.503Z,20608
2017-08-24T08:38:14.474Z,25280
2017-08-24T08:39:14.216Z,21248
2017-08-24T08:40:14.469Z,23904
2017-08-24T08:41:14.428Z,21216
2017-08-24T08:42:14.409Z,30432
2017-08-24T08:43:14.060Z,29696
2017-08-24T08:44:14.414Z,36512
2017-08-24T08:45:14.355Z,16800
2017-08-24T08:46:14.034Z,12616
2017-08-24T08:47:14.328Z,10700
2017-08-24T08:48:14.305Z,12764
2017-08-24T08:49:14.338Z,14844
2017-08-24T08:50:14.304Z,16344
2017-08-24T08:51:13.945Z,16896
2017-08-24T08:52:14.520Z,14268
2017-08-24T08:53:14.279Z,15648
2017-08-24T08:54:14.208Z,18592
2017-08-24T08:55:13.391Z,19488
2017-08-24T08:56:14.179Z,15752
2017-08-24T08:57:14.159Z,14472
2017-08-24T08:58:14.134Z,13888
2017-08-24T08:59:13.828Z,11864
2017-08-24T09:00:14.146Z,10992
2017-08-24T09:01:14.140Z,14004
2017-08-24T09:02:14.075Z,15464
2017-08-24T09:03:14.114Z,20768
2017-08-24T09:04:14.045Z,15104
2017-08-24T09:05:14.032Z,14268
2017-08-24T09:06:14.012Z,17024
2017-08-24T09:07:13.999Z,19712
2017-08-24T09:08:13.974Z,21056
2017-08-24T09:09:13.955Z,51168
2017-08-24T09:10:13.644Z,51936
2017-08-24T09:11:13.921Z,44608
2017-08-24T09:12:13.902Z,48128
2017-08-24T09:13:13.889Z,27680
2017-08-24T09:14:13.927Z,30656
2017-08-24T09:15:13.862Z,25344
2017-08-24T09:16:13.843Z,29664
2017-08-24T09:17:13.838Z,33504
2017-08-24T09:18:13.815Z,40096
2017-08-24T09:19:13.805Z,47392
2017-08-24T09:20:13.788Z,46304
2017-08-24T09:21:13.775Z,45376
2017-08-24T09:22:13.750Z,45728
2017-08-24T09:23:13.740Z,30496
2017-08-24T09:24:13.734Z,26048
2017-08-24T09:25:13.764Z,23072
2017-08-24T09:26:13.699Z,25824
2017-08-24T09:27:13.381Z,31616
2017-08-24T09:28:13.367Z,30368
2017-08-24T09:29:13.665Z,19648
2017-08-24T09:30:13.895Z,21600
2017-08-24T09:31:13.629Z,21984
2017-08-24T09:32:13.673Z,20640
2017-08-24T09:33:13.611Z,29984
2017-08-24T09:34:13.289Z,22336
2017-08-24T09:35:13.271Z,20672
2017-08-24T09:36:13.574Z,19712
2017-08-24T09:37:13.551Z,46400
2017-08-24T09:38:13.538Z,51840
2017-08-24T09:39:13.521Z,51136
2017-08-24T09:40:13.517Z,39936
2017-08-24T09:41:13.177Z,42208
2017-08-24T09:42:13.482Z,50368
2017-08-24T09:43:12.848Z,50368
2017-08-24T09:44:13.455Z,50208
2017-08-24T09:45:13.135Z,33728
2017-08-24T09:46:13.118Z,32992
2017-08-24T09:47:13.423Z,45920
2017-08-24T09:48:13.405Z,33088
2017-08-24T09:49:13.084Z,34464
2017-08-24T09:50:13.370Z,34272
2017-08-24T09:51:13.372Z,30816
2017-08-24T09:52:13.348Z,36704
2017-08-24T09:53:13.344Z,49888
2017-08-24T09:54:13.321Z,38048
2017-08-24T09:55:13.007Z,32256
2017-08-24T09:56:13.000Z,30976
2017-08-24T09:57:12.987Z,44768
2017-08-24T09:58:13.326Z,57408
2017-08-24T09:59:13.275Z,33056
2017-08-24T10:00:13.260Z,39424
2017-08-24T10:01:13.250Z,59584
2017-08-24T10:02:13.235Z,45824
2017-08-24T10:03:13.221Z,34496
2017-08-24T10:04:13.268Z,27808
2017-08-24T10:05:12.584Z,37216
2017-08-24T10:06:13.194Z,56352
2017-08-24T10:07:13.226Z,30656
2017-08-24T10:08:13.421Z,39264
2017-08-24T10:09:13.152Z,32416
2017-08-24T10:10:13.151Z,28896
2017-08-24T10:11:12.828Z,25472
2017-08-24T10:12:13.124Z,24640
2017-08-24T10:13:12.799Z,25216
2017-08-24T10:14:13.099Z,24928
2017-08-24T10:15:13.189Z,51328
2017-08-24T10:16:13.083Z,25664
2017-08-24T10:17:13.060Z,20064
2017-08-24T10:18:13.053Z,20416
2017-08-24T10:19:13.042Z,19552
2017-08-24T10:20:12.720Z,17568
2017-08-24T10:21:13.308Z,13544
2017-08-24T10:22:13.008Z,9920
2017-08-24T10:23:12.681Z,9604
2017-08-24T10:24:12.658Z,10608
2017-08-24T10:25:12.967Z,14628
2017-08-24T10:26:12.958Z,16832
2017-08-24T10:27:12.929Z,17824
2017-08-24T10:28:12.935Z,22880
2017-08-24T10:29:13.107Z,48544
2017-08-24T10:30:13.085Z,48384
2017-08-24T10:31:13.207Z,50432
2017-08-24T10:32:12.859Z,39904
2017-08-24T10:33:12.848Z,27232
2017-08-24T10:34:12.846Z,19936
2017-08-24T10:35:12.823Z,17280
2017-08-24T10:36:12.816Z,14656
2017-08-24T10:37:12.798Z,16768
2017-08-24T10:38:12.777Z,16736
2017-08-24T10:39:12.826Z,21472
2017-08-24T10:40:12.757Z,24640
2017-08-24T10:41:12.742Z,24864
2017-08-24T10:42:12.728Z,25568
2017-08-24T10:43:12.708Z,30592
2017-08-24T10:44:12.694Z,30944
2017-08-24T10:45:12.114Z,28288
2017-08-24T10:46:12.664Z,27456
2017-08-24T10:47:12.660Z,21376
2017-08-24T10:48:12.655Z,18464
2017-08-24T10:49:12.929Z,16140
2017-08-24T10:50:12.300Z,19712
2017-08-24T10:51:12.607Z,19936
2017-08-24T10:52:12.278Z,23776
2017-08-24T10:53:12.271Z,26816
2017-08-24T10:54:12.552Z,22944
2017-08-24T10:55:12.233Z,18688
2017-08-24T10:56:11.926Z,14020
2017-08-24T10:57:12.504Z,13736
2017-08-24T10:58:12.174Z,18016
2017-08-24T10:59:12.176Z,24192
2017-08-24T11:00:12.466Z,24448
2017-08-24T11:01:12.450Z,20384
2017-08-24T11:02:12.445Z,21440
2017-08-24T11:03:12.107Z,19744
2017-08-24T11:04:12.397Z,20992
2017-08-24T11:05:12.076Z,24416
2017-08-24T11:06:12.466Z,25952
2017-08-24T11:07:12.356Z,30240
2017-08-24T11:08:12.340Z,27552
2017-08-24T11:09:12.067Z,21568
2017-08-24T11:10:12.322Z,18880
2017-08-24T11:11:12.297Z,18144
2017-08-24T11:12:12.282Z,16192
2017-08-24T11:13:12.275Z,14812
2017-08-24T11:14:12.251Z,20768
2017-08-24T11:15:12.243Z,19872
2017-08-24T11:16:12.223Z,19168
2017-08-24T11:17:12.204Z,14952
2017-08-24T11:18:12.187Z,14488
2017-08-24T11:19:12.177Z,15564
2017-08-24T11:20:12.160Z,18592
2017-08-24T11:21:12.151Z,20928
2017-08-24T11:22:11.831Z,21440
2017-08-24T11:23:12.114Z,20128
2017-08-24T11:24:12.092Z,17856
2017-08-24T11:25:11.824Z,17120
2017-08-24T11:26:12.065Z,15060
2017-08-24T11:27:12.057Z,17408
2017-08-24T11:28:12.054Z,17504
2017-08-24T11:29:12.029Z,16832
2017-08-24T11:30:12.002Z,20096
2017-08-24T11:31:11.375Z,19680
2017-08-24T11:32:11.971Z,18720
2017-08-24T11:33:11.970Z,17856
2017-08-24T11:34:11.945Z,18656
2017-08-24T11:35:11.936Z,20352
2017-08-24T11:36:11.913Z,20832
2017-08-24T11:37:11.899Z,18688
2017-08-24T11:38:11.584Z,17888
2017-08-24T11:39:11.861Z,22368
2017-08-24T11:40:11.560Z,24352
2017-08-24T11:41:11.531Z,20896
2017-08-24T11:42:11.819Z,20224
2017-08-24T11:43:11.849Z,19744
2017-08-24T11:44:11.869Z,18720
2017-08-24T11:45:11.933Z,18656
2017-08-24T11:46:11.778Z,17728
2017-08-24T11:47:11.809Z,18816
2017-08-24T11:48:11.734Z,19328
2017-08-24T11:49:11.738Z,19264
2017-08-24T11:50:11.688Z,18496
2017-08-24T11:51:11.676Z,17952
2017-08-24T11:52:11.668Z,16948
2017-08-24T11:53:11.641Z,16200
2017-08-24T11:54:11.639Z,16332
2017-08-24T11:55:11.625Z,16220
2017-08-24T11:56:11.593Z,15956
2017-08-24T11:57:11.279Z,15760
2017-08-24T11:58:11.622Z,16392
2017-08-24T11:59:11.552Z,18592
2017-08-24T12:00:11.227Z,18624
2017-08-24T12:01:11.524Z,16072
2017-08-24T12:02:11.507Z,15420
2017-08-24T12:03:11.182Z,16480
2017-08-24T12:04:11.475Z,18368
2017-08-24T12:05:11.166Z,18304
2017-08-24T12:06:11.444Z,16288
2017-08-24T12:07:11.439Z,18432
2017-08-24T12:08:11.433Z,18720
2017-08-24T12:09:11.412Z,18176
2017-08-24T12:10:11.394Z,16808
2017-08-24T12:11:11.387Z,16944
2017-08-24T12:12:11.355Z,19136
2017-08-24T12:13:11.442Z,19072
2017-08-24T12:14:11.351Z,19584
2017-08-24T12:15:11.541Z,19296
2017-08-24T12:16:11.304Z,15336
2017-08-24T12:17:11.319Z,14348
2017-08-24T12:18:11.270Z,16208
2017-08-24T12:19:11.010Z,15980
2017-08-24T12:20:11.232Z,16364
2017-08-24T12:21:11.217Z,15800
2017-08-24T12:22:11.198Z,14120
2017-08-24T12:23:11.214Z,14332
2017-08-24T12:24:11.162Z,13776
2017-08-24T12:25:11.158Z,14552
2017-08-24T12:26:10.833Z,16644
2017-08-24T12:27:11.123Z,17152
2017-08-24T12:28:11.101Z,17792
2017-08-24T12:29:11.145Z,16800
2017-08-24T12:30:11.072Z,16832
2017-08-24T12:31:11.060Z,17376
2017-08-24T12:32:11.039Z,16396
2017-08-24T12:33:10.764Z,14640
2017-08-24T12:34:11.010Z,11984
2017-08-24T12:35:10.977Z,12892
2017-08-24T12:36:11.024Z,15136
2017-08-24T12:37:10.958Z,16608
2017-08-24T12:38:10.683Z,14716
2017-08-24T12:39:10.944Z,13604
2017-08-24T12:40:10.592Z,13012
2017-08-24T12:41:10.604Z,14532
2017-08-24T12:42:10.888Z,17088
2017-08-24T12:43:10.873Z,17728
2017-08-24T12:44:10.864Z,15688
2017-08-24T12:45:10.539Z,13664
2017-08-24T12:46:10.517Z,12244
2017-08-24T12:47:10.862Z,11784
2017-08-24T12:48:10.477Z,11648
2017-08-24T12:49:10.793Z,11084
2017-08-24T12:50:10.458Z,10496
2017-08-24T12:51:10.774Z,9868
2017-08-24T12:52:10.471Z,9608
2017-08-24T12:53:10.729Z,9944
2017-08-24T12:54:10.753Z,9428
2017-08-24T12:55:10.701Z,11136
2017-08-24T12:56:10.372Z,11764
2017-08-24T12:57:10.650Z,10692
2017-08-24T12:58:10.669Z,10248
2017-08-24T12:59:10.662Z,9632
2017-08-24T13:00:10.600Z,9512
2017-08-24T13:01:10.580Z,10276
2017-08-24T13:02:10.598Z,10552
2017-08-24T13:03:10.608Z,9928
2017-08-24T13:04:10.216Z,9608
2017-08-24T13:05:10.563Z,9556
2017-08-24T13:06:10.507Z,9428
2017-08-24T13:07:10.470Z,9256
2017-08-24T13:08:10.467Z,9380
2017-08-24T13:09:10.557Z,9648
2017-08-24T13:10:10.442Z,9788
2017-08-24T13:11:10.468Z,9808
2017-08-24T13:12:10.399Z,9804
2017-08-24T13:13:10.065Z,9784
2017-08-24T13:14:10.044Z,9836
2017-08-24T13:15:10.347Z,9888
2017-08-24T13:16:10.381Z,10964
2017-08-24T13:17:10.325Z,11860
2017-08-24T13:18:09.979Z,12024
2017-08-24T13:19:10.286Z,11880
2017-08-24T13:20:10.275Z,11388
2017-08-24T13:21:10.234Z,11404
2017-08-24T13:22:10.284Z,11380
2017-08-24T13:23:10.226Z,12100
2017-08-24T13:24:10.196Z,13780
2017-08-24T13:25:09.869Z,13180
2017-08-24T13:26:10.174Z,13180
2017-08-24T13:27:09.832Z,13628
2017-08-24T13:28:10.125Z,13248
2017-08-24T13:29:10.115Z,12428
2017-08-24T13:30:09.798Z,12404
2017-08-24T13:31:10.081Z,12864
2017-08-24T13:32:10.067Z,12716
2017-08-24T13:33:09.729Z,12648
2017-08-24T13:34:09.726Z,11008
2017-08-24T13:35:10.032Z,9680